createdAt,value
2017-11-03T00:00:44.618Z,14.93
2017-11-03T00:03:13.055Z,14.97
2017-11-03T00:05:41.477Z,14.13
2017-11-03T00:08:09.897Z,16.70
2017-11-03T00:10:38.322Z,17.17
2017-11-03T00:13:06.732Z,17.30
2017-11-03T00:15:35.903Z,17.57
2017-11-03T00:18:04.325Z,17.10
2017-11-03T00:20:33.503Z,14.57
2017-11-03T00:23:02.695Z,18.37
2017-11-03T00:25:31.131Z,16.83
2017-11-03T00:27:59.561Z,21.17
2017-11-03T00:30:28.745Z,14.20
2017-11-03T00:32:57.174Z,20.47
2017-11-03T00:35:25.582Z,17.67
2017-11-03T00:37:54.001Z,17.87
2017-11-03T00:40:23.422Z,17.23
2017-11-03T00:42:51.841Z,19.10
2017-11-03T00:45:20.254Z,24.73
2017-11-03T00:47:49.448Z,20.10
2017-11-03T00:50:18.637Z,17.17
2017-11-03T00:52:47.048Z,24.30
2017-11-03T00:55:15.482Z,28.87
2017-11-03T00:57:44.145Z,18.10
2017-11-03T01:00:11.883Z,19.00
2017-11-03T01:02:40.303Z,26.80
2017-11-03T01:05:08.717Z,22.37
2017-11-03T01:07:37.910Z,25.97
2017-11-03T01:10:07.102Z,31.50
2017-11-03T01:12:36.282Z,29.57
2017-11-03T01:15:04.690Z,22.93
2017-11-03T01:17:33.113Z,26.57
2017-11-03T01:20:01.519Z,26.00
2017-11-03T01:22:29.925Z,27.17
2017-11-03T01:24:58.359Z,26.33
2017-11-03T01:27:26.770Z,26.73
2017-11-03T01:29:55.947Z,29.20
2017-11-03T01:32:24.374Z,23.00
2017-11-03T01:34:52.434Z,23.73
2017-11-03T01:37:21.023Z,24.30
2017-11-03T01:39:49.462Z,25.57
2017-11-03T01:42:17.880Z,38.70
2017-11-03T01:44:46.301Z,27.30
2017-11-03T01:47:14.754Z,25.70
2017-11-03T01:49:43.226Z,25.27
2017-11-03T01:52:10.962Z,40.40
2017-11-03T01:54:40.287Z,24.63
2017-11-03T01:57:08.689Z,32.67
2017-11-03T01:59:36.757Z,28.83
2017-11-03T02:02:04.500Z,29.03
2017-11-03T02:04:32.935Z,24.93
2017-11-03T02:07:01.771Z,32.77
2017-11-03T02:09:30.203Z,28.40
2017-11-03T02:11:58.613Z,32.07
2017-11-03T02:14:27.014Z,29.40
2017-11-03T02:16:55.443Z,27.00
2017-11-03T02:19:24.330Z,43.33
2017-11-03T02:21:52.815Z,30.50
2017-11-03T02:24:21.678Z,26.47
2017-11-03T02:26:49.395Z,32.07
2017-11-03T02:29:17.815Z,28.80
2017-11-03T02:31:46.250Z,33.40
2017-11-03T02:34:14.658Z,40.13
2017-11-03T02:36:43.069Z,30.73
2017-11-03T02:39:11.152Z,29.77
2017-11-03T02:41:40.336Z,32.47
2017-11-03T02:44:08.755Z,29.90
2017-11-03T02:46:37.194Z,38.93
2017-11-03T02:49:05.602Z,37.23
2017-11-03T02:51:33.993Z,38.83
2017-11-03T02:54:02.418Z,38.03
2017-11-03T02:56:30.829Z,37.07
2017-11-03T02:58:59.997Z,34.80
2017-11-03T03:01:28.435Z,41.80
2017-11-03T03:03:56.845Z,45.57
2017-11-03T03:06:25.263Z,38.47
2017-11-03T03:08:53.693Z,40.00
2017-11-03T03:11:22.137Z,41.17
2017-11-03T03:13:50.547Z,39.23
2017-11-03T03:16:18.634Z,47.53
2017-11-03T03:18:46.693Z,35.83
2017-11-03T03:21:14.751Z,35.03
2017-11-03T03:23:43.175Z,43.57
2017-11-03T03:26:11.660Z,36.80
2017-11-03T03:28:40.482Z,40.50
2017-11-03T03:31:09.163Z,43.30
2017-11-03T03:33:36.890Z,36.00
2017-11-03T03:36:05.729Z,48.00
2017-11-03T03:38:34.165Z,37.97
2017-11-03T03:41:03.351Z,49.53
2017-11-03T03:43:32.189Z,37.47
2017-11-03T03:46:00.271Z,44.97
2017-11-03T03:48:28.064Z,42.80
2017-11-03T03:50:56.144Z,46.57
2017-11-03T03:53:25.339Z,44.20
2017-11-03T03:55:53.824Z,40.53
2017-11-03T03:58:23.008Z,42.57
2017-11-03T04:00:51.426Z,36.57
2017-11-03T04:03:19.828Z,45.90
2017-11-03T04:05:48.237Z,35.83
2017-11-03T04:08:16.654Z,38.37
2017-11-03T04:10:45.064Z,42.00
2017-11-03T04:13:13.481Z,42.33
2017-11-03T04:15:41.908Z,40.17
2017-11-03T04:18:10.316Z,43.43
2017-11-03T04:20:38.722Z,42.67
2017-11-03T04:23:07.923Z,35.47
2017-11-03T04:25:36.402Z,37.97
2017-11-03T04:28:05.225Z,38.50
2017-11-03T04:30:33.297Z,39.43
2017-11-03T04:33:01.018Z,42.07
2017-11-03T04:35:29.419Z,34.47
2017-11-03T04:37:57.849Z,36.80
2017-11-03T04:40:25.593Z,38.00
2017-11-03T04:42:54.003Z,38.50
2017-11-03T04:45:22.433Z,37.80
2017-11-03T04:47:50.511Z,36.50
2017-11-03T04:50:18.929Z,39.03
2017-11-03T04:52:47.356Z,36.87
2017-11-03T04:55:15.558Z,44.37
2017-11-03T04:57:43.986Z,38.33
2017-11-03T05:00:13.179Z,40.43
2017-11-03T05:02:42.358Z,39.00
2017-11-03T05:05:10.768Z,40.13
2017-11-03T05:07:39.967Z,31.93
2017-11-03T05:10:08.382Z,40.73
2017-11-03T05:12:36.798Z,40.10
2017-11-03T05:15:05.243Z,36.73
2017-11-03T05:17:36.450Z,44.00
2017-11-03T05:20:04.534Z,38.20
2017-11-03T05:22:32.958Z,36.83
2017-11-03T05:25:01.374Z,36.63
2017-11-03T05:27:30.548Z,41.67
2017-11-03T05:29:58.978Z,38.00
2017-11-03T05:32:27.394Z,42.47
2017-11-03T05:34:55.106Z,38.30
2017-11-03T05:37:22.849Z,37.27
2017-11-03T05:39:51.679Z,34.77
2017-11-03T05:42:20.140Z,37.60
2017-11-03T05:44:49.220Z,39.40
2017-11-03T05:47:17.635Z,39.30
2017-11-03T05:49:46.043Z,39.70
2017-11-03T05:52:14.621Z,42.13
2017-11-03T05:54:43.795Z,42.87
2017-11-03T05:57:12.203Z,38.93
2017-11-03T05:59:40.629Z,38.80
2017-11-03T06:02:08.856Z,34.97
2017-11-03T06:04:37.270Z,36.60
2017-11-03T06:07:07.532Z,36.77
2017-11-03T06:09:35.949Z,41.27
2017-11-03T06:12:04.242Z,41.67
2017-11-03T06:14:33.257Z,45.33
2017-11-03T06:17:01.493Z,38.50
2017-11-03T06:19:30.686Z,42.40
2017-11-03T06:21:59.890Z,46.67
2017-11-03T06:24:29.064Z,39.53
2017-11-03T06:26:57.470Z,49.40
2017-11-03T06:29:26.178Z,49.40
2017-11-03T06:31:54.861Z,44.27
2017-11-03T06:34:23.646Z,40.60
2017-11-03T06:36:52.431Z,46.53
2017-11-03T06:39:21.222Z,45.30
2017-11-03T06:41:50.006Z,40.63
2017-11-03T06:44:18.384Z,52.50
2017-11-03T06:46:46.831Z,45.23
2017-11-03T06:49:15.667Z,41.37
2017-11-03T06:51:43.783Z,45.50
2017-11-03T06:54:12.193Z,46.83
2017-11-03T06:56:40.601Z,48.37
2017-11-03T06:59:08.331Z,42.73
2017-11-03T07:01:36.405Z,43.90
2017-11-03T07:04:04.823Z,37.60
2017-11-03T07:06:34.075Z,41.10
2017-11-03T07:09:02.483Z,43.63
2017-11-03T07:11:30.886Z,46.20
2017-11-03T07:13:58.616Z,45.63
2017-11-03T07:16:26.694Z,53.20
2017-11-03T07:18:55.059Z,43.23
2017-11-03T07:21:23.509Z,48.40
2017-11-03T07:23:52.846Z,46.63
2017-11-03T07:26:21.720Z,46.97
2017-11-03T07:28:50.156Z,53.50
2017-11-03T07:31:18.562Z,41.80
2017-11-03T07:33:46.973Z,43.80
2017-11-03T07:36:15.398Z,42.50
2017-11-03T07:38:43.823Z,51.87
2017-11-03T07:41:12.232Z,43.83
2017-11-03T07:43:40.689Z,37.03
2017-11-03T07:46:09.092Z,43.93
2017-11-03T07:48:37.741Z,51.77
2017-11-03T07:51:06.175Z,43.90
2017-11-03T07:53:35.355Z,53.20
2017-11-03T07:56:03.423Z,41.73
2017-11-03T07:58:31.663Z,50.43
2017-11-03T08:01:00.137Z,50.30
2017-11-03T08:03:28.559Z,48.73
2017-11-03T08:05:56.991Z,49.43
2017-11-03T08:08:25.406Z,57.00
2017-11-03T08:10:53.822Z,52.93
2017-11-03T08:13:23.040Z,50.13
2017-11-03T08:15:51.454Z,53.50
2017-11-03T08:18:19.854Z,49.17
2017-11-03T08:20:48.284Z,47.50
2017-11-03T08:23:16.708Z,42.57
2017-11-03T08:25:45.886Z,40.50
2017-11-03T08:28:14.319Z,48.23
2017-11-03T08:30:42.740Z,40.77
2017-11-03T08:33:11.158Z,34.93
2017-11-03T08:35:40.354Z,35.10
2017-11-03T08:38:08.769Z,36.37
2017-11-03T08:40:37.191Z,39.30
2017-11-03T08:43:05.623Z,38.00
2017-11-03T08:45:34.035Z,44.67
2017-11-03T08:48:02.455Z,43.03
2017-11-03T08:50:31.656Z,48.30
2017-11-03T08:53:00.309Z,42.97
2017-11-03T08:55:28.719Z,39.33
2017-11-03T08:57:57.915Z,39.97
2017-11-03T09:00:26.405Z,41.97
2017-11-03T09:02:54.839Z,52.23
2017-11-03T09:05:23.290Z,38.20
2017-11-03T09:07:51.702Z,33.20
2017-11-03T09:10:20.118Z,42.20
2017-11-03T09:12:48.198Z,36.47
2017-11-03T09:15:16.622Z,39.63
2017-11-03T09:17:46.498Z,39.63
2017-11-03T09:20:14.648Z,34.23
2017-11-03T09:22:43.132Z,34.90
2017-11-03T09:25:11.201Z,38.67
2017-11-03T09:27:40.395Z,39.43
2017-11-03T09:30:09.238Z,38.40
2017-11-03T09:32:37.762Z,40.73
2017-11-03T09:35:08.136Z,32.63
2017-11-03T09:37:35.974Z,37.33
2017-11-03T09:40:04.398Z,36.13
2017-11-03T09:42:33.036Z,35.90
2017-11-03T09:45:01.454Z,36.93
2017-11-03T09:47:29.873Z,35.70
2017-11-03T09:49:59.062Z,40.30
2017-11-03T09:52:28.246Z,35.33
2017-11-03T09:54:56.663Z,33.50
2017-11-03T09:57:25.339Z,40.97
2017-11-03T09:59:53.763Z,34.43
2017-11-03T10:02:22.188Z,38.03
2017-11-03T10:04:51.043Z,35.37
2017-11-03T10:07:19.715Z,34.57
2017-11-03T10:09:48.125Z,40.70
2017-11-03T10:12:17.323Z,35.77
2017-11-03T10:14:46.515Z,43.50
2017-11-03T10:17:15.701Z,34.57
2017-11-03T10:19:44.139Z,37.47
2017-11-03T10:22:12.202Z,34.37
2017-11-03T10:24:40.486Z,33.10
2017-11-03T10:27:08.566Z,38.77
2017-11-03T10:29:36.974Z,28.43
2017-11-03T10:32:05.394Z,29.77
2017-11-03T10:34:33.830Z,31.10
2017-11-03T10:37:02.236Z,29.90
2017-11-03T10:39:30.718Z,29.37
2017-11-03T10:41:59.920Z,24.57
2017-11-03T10:44:28.335Z,26.20
2017-11-03T10:46:56.746Z,31.57
2017-11-03T10:49:24.829Z,28.83
2017-11-03T10:51:53.328Z,33.60
2017-11-03T10:54:21.733Z,30.20
2017-11-03T10:56:49.471Z,29.03
2017-11-03T10:59:17.887Z,34.67
2017-11-03T11:01:45.618Z,34.83
2017-11-03T11:04:13.729Z,28.17
2017-11-03T11:06:43.151Z,26.50
2017-11-03T11:09:11.582Z,28.63
2017-11-03T11:11:39.799Z,35.77
2017-11-03T11:14:08.982Z,30.70
2017-11-03T11:16:37.395Z,26.27
2017-11-03T11:19:06.250Z,28.87
2017-11-03T11:21:34.674Z,27.93
2017-11-03T11:24:03.439Z,29.93
2017-11-03T11:26:32.653Z,23.93
2017-11-03T11:29:01.483Z,20.93
2017-11-03T11:31:29.887Z,24.67
2017-11-03T11:33:58.324Z,21.43
2017-11-03T11:36:26.749Z,18.00
2017-11-03T11:38:54.476Z,29.70
2017-11-03T11:41:22.212Z,22.23
2017-11-03T11:43:49.943Z,24.77
2017-11-03T11:46:17.682Z,28.80
2017-11-03T11:48:45.770Z,24.33
2017-11-03T11:51:13.828Z,22.67
2017-11-03T11:53:41.909Z,28.03
2017-11-03T11:56:09.660Z,22.67
2017-11-03T11:58:37.390Z,21.03
2017-11-03T12:01:04.934Z,23.13
2017-11-03T12:03:33.014Z,26.53
2017-11-03T12:06:00.731Z,20.30
2017-11-03T12:08:28.467Z,25.83
2017-11-03T12:10:56.817Z,23.70
2017-11-03T12:13:24.537Z,24.10
2017-11-03T12:15:52.261Z,21.00
2017-11-03T12:18:20.357Z,18.23
2017-11-03T12:20:48.075Z,20.73
2017-11-03T12:23:15.795Z,19.80
2017-11-03T12:25:44.987Z,21.13
2017-11-03T12:28:12.703Z,17.07
2017-11-03T12:30:40.422Z,21.60
2017-11-03T12:33:08.942Z,15.87
2017-11-03T12:35:36.672Z,18.27
2017-11-03T12:38:05.175Z,19.20
2017-11-03T12:40:32.909Z,17.53
2017-11-03T12:43:01.402Z,24.00
2017-11-03T12:45:29.900Z,17.00
2017-11-03T12:47:57.791Z,19.70
2017-11-03T12:50:25.514Z,15.03
2017-11-03T12:52:53.258Z,13.07
2017-11-03T12:55:21.766Z,17.77
2017-11-03T12:57:49.478Z,15.43
2017-11-03T13:00:17.215Z,16.83
2017-11-03T13:02:45.334Z,26.63
2017-11-03T13:05:14.206Z,22.37
2017-11-03T13:07:42.274Z,17.07
2017-11-03T13:10:10.203Z,20.20
2017-11-03T13:12:38.280Z,18.73
2017-11-03T13:15:05.995Z,13.10
2017-11-03T13:17:34.874Z,19.80
2017-11-03T13:20:02.632Z,17.40
2017-11-03T13:22:30.364Z,19.33
2017-11-03T13:24:58.095Z,19.70
2017-11-03T13:27:25.625Z,20.40
2017-11-03T13:29:53.354Z,16.73
2017-11-03T13:32:21.441Z,19.43
2017-11-03T13:34:49.173Z,18.27
2017-11-03T13:37:16.893Z,21.30
2017-11-03T13:39:44.661Z,18.57
2017-11-03T13:42:13.490Z,14.60
2017-11-03T13:44:42.078Z,26.10
2017-11-03T13:47:09.806Z,16.87
2017-11-03T13:49:37.518Z,17.23
2017-11-03T13:52:05.255Z,14.67
2017-11-03T13:54:33.353Z,16.70
2017-11-03T13:57:01.070Z,20.30
2017-11-03T13:59:29.478Z,17.50
2017-11-03T14:01:57.898Z,24.20
2017-11-03T14:04:25.622Z,17.70
2017-11-03T14:06:53.512Z,20.40
2017-11-03T14:09:21.406Z,18.70
2017-11-03T14:11:50.591Z,20.13
2017-11-03T14:14:19.827Z,20.10
2017-11-03T14:16:48.257Z,27.80
2017-11-03T14:19:16.687Z,24.87
2017-11-03T14:21:45.103Z,23.57
2017-11-03T14:24:14.782Z,22.97
2017-11-03T14:26:43.191Z,19.60
2017-11-03T14:29:11.605Z,22.20
2017-11-03T14:31:41.027Z,20.53
2017-11-03T14:34:09.435Z,18.67
2017-11-03T14:36:37.847Z,18.87
2017-11-03T14:39:06.269Z,18.90
2017-11-03T14:41:34.698Z,19.90
2017-11-03T14:44:03.135Z,23.23
2017-11-03T14:46:31.377Z,23.33
2017-11-03T14:48:59.816Z,21.27
2017-11-03T14:51:28.227Z,17.07
2017-11-03T14:53:57.426Z,21.87
2017-11-03T14:56:26.610Z,21.23
2017-11-03T14:58:55.834Z,22.53
2017-11-03T15:01:24.278Z,24.27
2017-11-03T15:03:52.694Z,18.77
2017-11-03T15:06:21.120Z,17.00
2017-11-03T15:08:49.562Z,23.43
2017-11-03T15:11:17.970Z,20.97
2017-11-03T15:13:46.377Z,18.57
2017-11-03T15:16:14.822Z,20.90
2017-11-03T15:18:43.240Z,16.10
2017-11-03T15:21:12.920Z,15.50
2017-11-03T15:23:42.175Z,15.83
2017-11-03T15:26:10.598Z,18.63
2017-11-03T15:28:39.006Z,18.53
2017-11-03T15:31:07.932Z,16.80
2017-11-03T15:33:36.352Z,16.87
2017-11-03T15:36:04.774Z,17.80
2017-11-03T15:38:33.222Z,18.37
2017-11-03T15:41:01.019Z,17.00
2017-11-03T15:43:31.143Z,18.37
2017-11-03T15:45:59.579Z,17.63
2017-11-03T15:48:27.990Z,27.13
2017-11-03T15:50:56.065Z,27.23
2017-11-03T15:53:25.059Z,18.57
2017-11-03T15:55:53.585Z,24.00
2017-11-03T15:58:21.997Z,18.93
2017-11-03T16:00:51.250Z,21.23
2017-11-03T16:03:19.650Z,17.33
2017-11-03T16:05:48.063Z,21.83
2017-11-03T16:08:17.258Z,20.43
2017-11-03T16:10:46.435Z,22.70
2017-11-03T16:13:14.850Z,19.17
2017-11-03T16:15:43.361Z,23.73
2017-11-03T16:18:11.786Z,22.30
2017-11-03T16:20:40.973Z,19.27
2017-11-03T16:23:10.163Z,20.03
2017-11-03T16:25:38.576Z,18.50
2017-11-03T16:28:07.009Z,24.80
2017-11-03T16:30:36.366Z,22.50
2017-11-03T16:33:04.091Z,22.80
2017-11-03T16:35:33.094Z,22.33
2017-11-03T16:38:02.284Z,16.40
2017-11-03T16:40:31.845Z,24.33
2017-11-03T16:43:00.413Z,21.87
2017-11-03T16:45:28.864Z,21.93
2017-11-03T16:47:58.060Z,25.70
2017-11-03T16:50:27.254Z,21.20
2017-11-03T16:52:56.682Z,25.60
2017-11-03T16:55:24.760Z,23.50
2017-11-03T16:57:53.178Z,20.17
2017-11-03T17:00:21.841Z,24.43
2017-11-03T17:02:50.252Z,21.07
2017-11-03T17:05:18.315Z,20.33
2017-11-03T17:07:46.083Z,23.17
2017-11-03T17:10:14.495Z,22.07
2017-11-03T17:12:42.901Z,25.57
2017-11-03T17:15:10.987Z,22.07
2017-11-03T17:17:39.213Z,21.80
2017-11-03T17:20:07.631Z,18.30
2017-11-03T17:22:36.055Z,19.20
2017-11-03T17:25:05.255Z,22.20
2017-11-03T17:27:34.438Z,22.53
2017-11-03T17:30:03.875Z,20.30
2017-11-03T17:32:32.299Z,32.30
2017-11-03T17:35:00.706Z,23.63
2017-11-03T17:37:29.966Z,23.23
2017-11-03T17:39:58.383Z,27.60
2017-11-03T17:42:27.570Z,28.97
2017-11-03T17:44:55.816Z,24.83
2017-11-03T17:47:24.222Z,26.23
2017-11-03T17:49:52.642Z,21.90
2017-11-03T17:52:20.718Z,27.20
2017-11-03T17:54:49.127Z,22.77
2017-11-03T17:57:17.542Z,24.40
2017-11-03T17:59:46.785Z,23.37
2017-11-03T18:02:14.850Z,30.07
2017-11-03T18:04:43.260Z,26.83
2017-11-03T18:07:11.681Z,23.90
2017-11-03T18:09:39.399Z,31.47
2017-11-03T18:12:07.801Z,34.50
2017-11-03T18:14:36.317Z,22.40
2017-11-03T18:17:04.729Z,25.33
2017-11-03T18:19:33.185Z,32.40
2017-11-03T18:22:01.656Z,30.47
2017-11-03T18:24:29.722Z,24.23
2017-11-03T18:26:58.169Z,29.17
2017-11-03T18:29:27.202Z,29.90
2017-11-03T18:31:55.619Z,27.17
2017-11-03T18:34:24.026Z,30.47
2017-11-03T18:36:53.218Z,26.60
2017-11-03T18:39:22.411Z,29.73
2017-11-03T18:41:51.588Z,28.50
2017-11-03T18:44:20.059Z,26.63
2017-11-03T18:46:48.521Z,23.63
2017-11-03T18:49:16.745Z,31.67
2017-11-03T18:51:45.976Z,25.73
2017-11-03T18:54:14.431Z,29.13
2017-11-03T18:56:42.872Z,28.30
2017-11-03T18:59:11.296Z,25.60
2017-11-03T19:01:39.398Z,24.67
2017-11-03T19:04:07.815Z,31.30
2017-11-03T19:06:36.261Z,30.00
2017-11-03T19:09:03.805Z,33.80
2017-11-03T19:11:32.413Z,30.60
2017-11-03T19:14:01.171Z,34.37
2017-11-03T19:16:29.633Z,41.47
2017-11-03T19:18:58.045Z,34.83
2017-11-03T19:21:26.479Z,30.90
2017-11-03T19:23:55.672Z,41.67
2017-11-03T19:26:24.870Z,33.23
2017-11-03T19:28:54.072Z,39.83
2017-11-03T19:31:23.251Z,37.80
2017-11-03T19:33:51.668Z,36.47
2017-11-03T19:36:20.111Z,32.67
2017-11-03T19:38:48.518Z,35.97
2017-11-03T19:41:17.031Z,38.87
2017-11-03T19:43:45.698Z,34.97
2017-11-03T19:46:13.928Z,41.60
2017-11-03T19:48:42.342Z,34.57
2017-11-03T19:51:10.820Z,39.80
2017-11-03T19:53:39.234Z,42.33
2017-11-03T19:56:07.693Z,37.87
2017-11-03T19:58:36.406Z,36.23
2017-11-03T20:01:04.390Z,44.50
2017-11-03T20:03:32.805Z,37.30
2017-11-03T20:06:01.419Z,36.80
2017-11-03T20:08:29.851Z,39.23
2017-11-03T20:10:59.121Z,38.97
2017-11-03T20:13:27.559Z,38.00
2017-11-03T20:15:55.984Z,33.87
2017-11-03T20:18:24.395Z,35.77
2017-11-03T20:20:53.837Z,33.00
2017-11-03T20:23:22.266Z,38.23
2017-11-03T20:25:51.465Z,34.83
2017-11-03T20:28:20.826Z,34.03
2017-11-03T20:30:49.235Z,36.50
2017-11-03T20:33:18.488Z,39.37
2017-11-03T20:35:46.924Z,39.20
2017-11-03T20:38:16.352Z,38.43
2017-11-03T20:40:44.862Z,41.03
2017-11-03T20:43:13.318Z,38.43
2017-11-03T20:45:41.736Z,35.13
2017-11-03T20:48:10.394Z,36.40
2017-11-03T20:50:38.851Z,35.33
2017-11-03T20:53:07.271Z,41.43
2017-11-03T20:55:35.682Z,34.67
2017-11-03T20:58:04.933Z,46.97
2017-11-03T21:00:33.338Z,41.43
2017-11-03T21:03:02.080Z,37.60
2017-11-03T21:05:30.533Z,37.83
2017-11-03T21:07:59.505Z,45.93
2017-11-03T21:10:28.686Z,35.67
2017-11-03T21:12:57.138Z,40.63
2017-11-03T21:15:25.560Z,37.03
2017-11-03T21:17:54.738Z,38.03
2017-11-03T21:20:23.205Z,38.97
2017-11-03T21:22:51.613Z,36.30
2017-11-03T21:25:20.793Z,43.00
2017-11-03T21:27:50.012Z,41.03
2017-11-03T21:30:19.209Z,37.47
2017-11-03T21:32:48.395Z,43.13
2017-11-03T21:35:16.838Z,34.70
2017-11-03T21:37:45.259Z,37.67
2017-11-03T21:40:14.427Z,48.70
2017-11-03T21:42:42.879Z,44.00
2017-11-03T21:45:11.296Z,34.77
2017-11-03T21:47:39.723Z,38.27
2017-11-03T21:50:08.183Z,29.57
2017-11-03T21:52:37.367Z,35.77
2017-11-03T21:55:06.562Z,32.47
2017-11-03T21:57:36.009Z,31.10
2017-11-03T22:00:03.735Z,35.27
2017-11-03T22:02:32.922Z,38.53
2017-11-03T22:05:01.358Z,38.37
2017-11-03T22:07:29.781Z,36.60
2017-11-03T22:09:58.964Z,43.13
2017-11-03T22:12:27.460Z,32.10
2017-11-03T22:14:56.670Z,32.37
2017-11-03T22:17:25.850Z,33.50
2017-11-03T22:19:54.292Z,34.30
2017-11-03T22:22:22.710Z,31.83
2017-11-03T22:24:51.892Z,33.50
2017-11-03T22:27:20.332Z,26.90
2017-11-03T22:29:48.753Z,29.70
2017-11-03T22:32:17.166Z,23.53
2017-11-03T22:34:45.410Z,21.77
2017-11-03T22:37:13.819Z,23.23
2017-11-03T22:39:41.889Z,30.43
2017-11-03T22:42:10.317Z,33.10
2017-11-03T22:44:38.545Z,25.80
2017-11-03T22:47:07.499Z,28.10
2017-11-03T22:49:35.931Z,27.83
2017-11-03T22:52:04.354Z,29.77
2017-11-03T22:54:32.763Z,27.33
2017-11-03T22:57:01.985Z,32.03
2017-11-03T22:59:30.394Z,26.20
2017-11-03T23:01:58.807Z,29.27
2017-11-03T23:04:28.015Z,24.53
2017-11-03T23:06:57.204Z,26.23
2017-11-03T23:09:26.379Z,28.93
2017-11-03T23:11:55.594Z,26.70
2017-11-03T23:14:24.766Z,58.53
2017-11-03T23:16:53.183Z,77.37
2017-11-03T23:19:22.611Z,43.50
2017-11-03T23:21:57.293Z,36.93
2017-11-03T23:24:26.833Z,33.33
2017-11-03T23:26:55.241Z,33.50
2017-11-03T23:29:23.643Z,34.07
2017-11-03T23:31:52.184Z,35.40
2017-11-03T23:34:20.599Z,41.53
2017-11-03T23:36:49.008Z,43.10
2017-11-03T23:39:18.427Z,40.97
2017-11-03T23:41:46.837Z,35.67
2017-11-03T23:44:15.317Z,40.93
2017-11-03T23:46:43.935Z,38.03
2017-11-03T23:49:13.122Z,35.37
2017-11-03T23:51:41.531Z,48.23
2017-11-03T23:54:10.744Z,37.03
2017-11-03T23:56:39.157Z,33.77
2017-11-03T23:59:07.573Z,31.30
